Salt Wells, Nevada
Current Conditions -  °F | °C
As of 11:56 AM on Sunday 23 Nov 2014 (Local Time) from KNFL Reporting Station
Overcast Overcast  
Wind Chill:   Ceiling: 15000
Heat Index:   Visibility: 10mi
Dew Point: -4°   Wind: 0mph
Humidity: 45%   Direction: NA
Pressure: 30.36"   Gusts: NA
Location:  39.5809°N, 118.333°W
Report Text: KNFL 231956Z 00000KT 10SM BKN150 OVC180 07/M04 A3036 RMK AO2 SLP238 T00671044
Loading
Personal Weather Stations






























Interactive Weather Map New forecast layout! Learn more

10-Day Weather Forecast

Advertisements
Track Severe Weather on mobile